• Join FlightAware (Why Join?)
  • Login
  • US Flag 
02:34AM EDT


 

Airport Tracker/Info


-or-


 

Live Flight TrackerFlight Track Log ✈ JBU732 ✈ 02-Jun-2013 ✈ TJBQ / BQN - KMCO

Flight Track Log - Related Links

Times and Time Zones

All times are in EDT time to prevent confusion due to time zone crossing. See the JBU732 flight status page for this flight to view local times or setup timezone preferences in your user account.

Time Position Orientation Groundspeed Altitude Reporting Facility
EDT Latitude Longitude Course Direction KTS MPH feet Rate Location/Type
11:15AM 18.5333 -67.1167 309° West 230 265 2,000  Level San Juan Center
11:16AM 18.6920 -67.3671 311° West  Level FlightAware Approximate
11:16AM 18.5667 -67.2000 293° West 300 345 5,100  Level San Juan Center
11:17AM 18.7648 -67.4638 305° West  Level FlightAware Approximate
11:17AM 18.6167 -67.2667 308° West 280 322 8,600  Level San Juan Center
11:18AM 18.8243 -67.5531 305° West  Level FlightAware Approximate
11:18AM 18.6667 -67.3333 308° West 280 322 10,700  Level San Juan Center
11:19AM 18.8911 -67.6361 309° West  Level FlightAware Approximate
11:19AM 18.7167 -67.4000 308° West 350 403 12,100  Level San Juan Center
11:20AM 18.9568 -67.7205 309° West  Level FlightAware Approximate
11:20AM 18.7833 -67.5000 305° West 380 437 14,400  Level San Juan Center
11:21AM 18.8500 -67.5833 310° West 380 437 16,300 1,800 Climbing San Juan Center
11:22AM 18.9167 -67.6833 305° West 410 472 18,000 1,680 Climbing San Juan Center
11:23AM 18.9833 -67.7667 310° West 410 472 19,700 1,620 Climbing San Juan Center
11:24AM 19.0667 -67.8667 311° West 420 483 21,300 1,620 Climbing San Juan Center
11:25AM 19.1333 -67.9667 305° West 430 495 23,000 1,440 Climbing San Juan Center
11:26AM 19.2167 -68.0667 311° West 430 495 24,200 1,200 Climbing San Juan Center
11:27AM 19.2833 -68.1667 305° West 430 495 25,400 1,080 Climbing San Juan Center
11:28AM 19.3667 -68.2667 311° West 440 506 26,400 960 Climbing San Juan Center
11:30AM 19.5583 -68.5194 309° West 536 617 28,700 900 Climbing Miami Center
11:31AM 19.6375 -68.6422 304° West 491 565 29,600 900 Climbing Miami Center
11:32AM 19.7078 -68.7544 304° West 473 544 30,600 1,200 Climbing Miami Center
11:33AM 19.7761 -68.8692 302° West 462 532 32,000 1,320 Climbing Miami Center
11:34AM 19.8442 -68.9819 303° West 462 532 33,300 1,500 Climbing Miami Center
11:35AM 19.9078 -69.0861 303° West 444 511 35,000 1,140 Climbing Miami Center
11:36AM 19.9731 -69.1858 305° West 429 494 35,600 480 Climbing Miami Center
11:37AM 20.0344 -69.2906 302° West 418 481 36,000 180 Climbing Miami Center
11:38AM 20.0975 -69.3928 303° West 418 481 36,000  Level Miami Center
11:39AM 20.1608 -69.4997 302° West 418 481 36,000  Level Miami Center
11:40AM 20.2242 -69.6022 303° West 418 481 36,000 -60 Level Miami Center
11:41AM 20.2872 -69.7047 303° West 418 481 35,900 -60 Descending Miami Center
11:42AM 20.3503 -69.8097 303° West 418 481 35,900  Level Miami Center
11:43AM 20.4133 -69.9147 303° West 418 481 36,000  Climbing Miami Center
11:44AM 20.4781 -70.0153 305° West 418 481 36,000  Level Miami Center
11:45AM 20.5392 -70.1231 301° West 423 487 36,000  Level Miami Center
11:46AM 20.6019 -70.2261 303° West 418 481 36,000  Level Miami Center
11:47AM 20.6625 -70.3294 302° West 418 481 36,000  Level Miami Center
11:48AM 20.7253 -70.4328 303° West 418 481 36,000 -60 Level Miami Center
11:49AM 20.7878 -70.5361 303° West 418 481 35,900  Descending Miami Center
11:50AM 20.8483 -70.6397 302° West 418 481 36,000  Climbing Miami Center
11:51AM 20.9108 -70.7433 303° West 418 481 36,000  Level Miami Center
11:52AM 20.9733 -70.8472 303° West 418 481 36,000  Level Miami Center
11:53AM 21.0336 -70.9511 302° West 411 473 36,000  Level Miami Center
11:54AM 21.0939 -71.0550 302° West 411 473 36,000  Level Miami Center
11:55AM 21.1539 -71.1592 302° West 411 473 36,000  Level Miami Center
11:56AM 21.2161 -71.2633 303° West 411 473 36,000  Level Miami Center
11:57AM 21.2717 -71.3589 302° West 416 479 36,000  Level Miami Center
11:58AM 21.3361 -71.4631 304° West 416 479 36,000  Level Miami Center
11:59AM 21.3981 -71.5653 303° West 416 479 36,000  Level Miami Center
12:00PM 21.4600 -71.6722 302° West 416 479 36,000  Level Miami Center
12:01PM 21.5197 -71.7744 302° West 416 479 36,000  Level Miami Center
12:02PM 21.5817 -71.8794 302° West 416 479 36,000  Level Miami Center
12:03PM 21.6433 -71.9842 302° West 416 479 36,000  Level Miami Center
12:04PM 21.7053 -72.0892 302° West 416 479 36,000  Level Miami Center
12:05PM 21.7689 -72.1961 303° West 416 479 36,000  Level Miami Center
12:06PM 21.8283 -72.2992 302° West 416 479 36,000  Level Miami Center
12:07PM 21.8922 -72.4067 303° West 416 479 36,000  Level Miami Center
12:08PM 21.9517 -72.5142 301° West 416 479 36,000  Level Miami Center
12:09PM 22.0131 -72.6175 303° West 416 479 36,000  Level Miami Center
12:10PM 22.0744 -72.7253 302° West 416 479 36,000  Level Miami Center
12:11PM 22.1356 -72.8286 303° West 416 479 36,000  Level Miami Center
12:12PM 22.1947 -72.9300 302° West 411 473 36,000  Level Miami Center
12:13PM 22.2517 -73.0336 301° West 411 473 36,000 -60 Level Miami Center
12:14PM 22.3125 -73.1350 303° West 401 461 35,900 120 Descending Miami Center
12:15PM 22.3714 -73.2389 302° West 401 461 36,300 540 Climbing Miami Center
12:16PM 22.4303 -73.3450 301° West 401 461 37,000 780 Climbing Miami Center
12:17PM 22.4956 -73.4581 302° West 406 467 37,900 480 Climbing Miami Center
12:18PM 22.5375 -73.5647 293° West 389 448 38,000  Climbing Miami Center
12:19PM 22.5528 -73.6881 278° West 389 448 38,000  Level Miami Center
12:20PM 22.5883 -73.7997 289° West 398 458 38,000 -60 Level Miami Center
12:21PM 22.6467 -73.8972 303° West 393 452 37,900 -60 Descending Miami Center
12:22PM 22.7072 -73.9972 303° West 388 447 37,900  Level Miami Center
12:23PM 22.7633 -74.0928 303° West 383 441 38,000  Climbing Miami Center
12:24PM 22.8194 -74.1953 301° West 390 449 38,000  Level Miami Center
12:25PM 22.8797 -74.2931 304° West 390 449 38,000  Level Miami Center
12:26PM 22.9356 -74.3936 301° West 390 449 38,000  Level Miami Center
12:27PM 22.9936 -74.4917 303° West 390 449 38,000  Level Miami Center
12:28PM 23.0494 -74.5900 302° West 390 449 38,000  Level Miami Center
12:29PM 23.1072 -74.6883 303° West 390 449 38,000  Level Miami Center
12:30PM 23.1631 -74.7867 302° West 390 449 38,000 -60 Level Miami Center
12:31PM 23.2208 -74.8831 303° West 390 449 37,900  Descending Miami Center
12:32PM 23.2764 -74.9861 300° West 384 442 38,000  Climbing Miami Center
12:33PM 23.3339 -75.0828 303° West 384 442 38,000  Level Miami Center
12:34PM 23.3894 -75.1814 302° West 384 442 38,000  Level Miami Center
12:35PM 23.4469 -75.2803 302° West 384 442 38,000  Level Miami Center
12:36PM 23.5022 -75.3794 301° West 384 442 38,000 -60 Level Miami Center
12:37PM 23.5597 -75.4761 303° West 384 442 37,900  Descending Miami Center
12:38PM 23.6147 -75.5731 302° West 384 442 38,000  Climbing Miami Center
12:39PM 23.6722 -75.6744 302° West 384 442 38,000  Level Miami Center
12:40PM 23.7292 -75.7761 301° West 384 442 38,000  Level Miami Center
12:41PM 23.7822 -75.8733 301° West 384 442 38,000 -60 Level Miami Center
12:42PM 23.8350 -75.9728 300° West 384 442 37,900  Descending Miami Center
12:43PM 23.8900 -76.0703 302° West 379 436 38,000  Climbing Miami Center
12:44PM 23.9447 -76.1700 301° West 379 436 38,000  Level Miami Center
12:45PM 23.9994 -76.2675 302° West 379 436 38,000  Level Miami Center
12:46PM 24.0542 -76.3697 300° West 384 442 38,000  Level Miami Center
12:47PM 24.1089 -76.4672 302° West 384 442 38,000  Level Miami Center
12:48PM 24.1636 -76.5697 300° West 384 442 38,000  Level Miami Center
12:49PM 24.2158 -76.6628 302° West 378 435 38,000  Level Miami Center
12:50PM 24.2703 -76.7631 301° West 378 435 38,000  Level Miami Center
12:51PM 24.3225 -76.8611 300° West 378 435 38,000  Level Miami Center
12:52PM 24.3769 -76.9614 301° West 378 435 38,000  Level Miami Center
12:53PM 24.4333 -77.0619 302° West 383 441 38,000  Level Miami Center
12:54PM 24.4875 -77.1603 301° West 383 441 38,000  Level Miami Center
12:55PM 24.5417 -77.2633 300° West 383 441 38,000  Level Miami Center
12:56PM 24.5936 -77.3639 300° West 383 441 38,000  Level Miami Center
12:57PM 24.6433 -77.4556 301° West 383 441 38,000  Level Miami Center
12:58PM 24.6992 -77.5589 301° West 383 441 38,000  Level Miami Center
12:59PM 24.7553 -77.6644 300° West 388 447 38,000  Level Miami Center
01:00PM 24.8111 -77.7631 302° West 388 447 38,000  Level Miami Center
01:01PM 24.8669 -77.8667 301° West 388 447 38,000  Level Miami Center
01:02PM 24.9206 -77.9681 300° West 388 447 38,000  Level Miami Center
01:03PM 24.9761 -78.0692 301° West 388 447 38,000  Level Miami Center
01:04PM 25.0336 -78.1753 301° West 388 447 38,000  Level Miami Center
01:05PM 25.0892 -78.2792 301° West 388 447 38,000  Level Miami Center
01:06PM 25.1444 -78.3856 300° West 393 452 38,000  Level Miami Center
01:07PM 25.1997 -78.4894 300° West 398 458 38,000  Level Miami Center
01:08PM 25.2550 -78.5914 301° West 398 458 38,000 -60 Level Miami Center
01:09PM 25.3103 -78.6956 300° West 398 458 37,900 -60 Descending Miami Center
01:10PM 25.3653 -78.7997 300° West 398 458 37,900  Level Miami Center
01:11PM 25.4183 -78.9042 299° West 398 458 38,000  Climbing Miami Center
01:12PM 25.4753 -79.0089 301° West 398 458 38,000  Level Miami Center
01:13PM 25.5303 -79.1089 301° West 398 458 38,000 -300 Level Miami Center
01:14PM 25.5808 -79.2156 298° West 393 452 37,400 -780 Descending Miami Center
01:15PM 25.6333 -79.3158 300° West 387 445 36,500 -1,020 Descending Miami Center
01:16PM 25.6942 -79.4322 300° West 392 451 35,400 -1,020 Descending Miami Center
01:17PM 25.7447 -79.5303 300° West 398 458 34,500 -1,020 Descending Miami Center
01:18PM 25.8053 -79.6469 300° West 403 464 33,400 -1,020 Descending Miami Center
01:19PM 25.8556 -79.7450 300° West 403 464 32,500 -1,020 Descending Miami Center
01:20PM 25.9197 -79.8692 300° West 403 464 31,400 -1,020 Descending Miami Center
01:21PM 25.9719 -79.9697 300° West 418 481 30,500 -720 Descending Miami Center
01:22PM 26.0344 -80.0778 303° West 425 489 30,000 -300 Descending Miami Center
01:23PM 26.1386 -80.1847 317° Northwest 451 519 30,000  Level Miami Center
01:24PM 26.2269 -80.2472 328° Northwest 437 503 30,000 -1,380 Level Miami Center
01:25PM 26.3447 -80.3042 337° Northwest 419 482 27,300 -1,860 Descending Miami Center
01:26PM 26.4397 -80.3508 336° Northwest 414 476 26,300 -1,080 Descending Miami Center
01:27PM 26.5553 -80.4078 336° Northwest 414 476 25,200 -1,020 Descending Miami Center
01:28PM 26.6481 -80.4547 336° Northwest 414 476 24,300 -960 Descending Miami Center
01:29PM 26.7594 -80.5117 335° Northwest 409 471 23,300 -1,020 Descending Miami Center
01:30PM 26.8481 -80.5608 334° Northwest 397 457 22,300 -1,020 Descending Miami Center
01:31PM 26.9489 -80.6108 336° Northwest 397 457 21,300 -1,020 Descending Miami Center
01:32PM 27.0481 -80.6606 336° Northwest 397 457 20,300 -1,020 Descending Miami Center
01:33PM 27.1469 -80.7106 336° Northwest 397 457 19,300 -960 Descending Miami Center
01:34PM 27.2478 -80.7606 336° Northwest 392 451 18,400 -960 Descending Miami Center
01:35PM 27.3447 -80.8106 335° Northwest 392 451 17,400 -780 Descending Miami Center
01:36PM 27.4372 -80.8581 336° Northwest 385 443 16,900 -720 Descending Miami Center
01:37PM 27.5381 -80.9086 336° Northwest 374 430 16,000 -1,200 Descending Miami Center
01:38PM 27.6328 -80.9539 337° Northwest 369 425 14,600 -1,200 Descending Miami Center
01:41PM 27.8667 -81.0833 334° Northwest 351 404 11,700 -1,080 Descending Orlando TRACON
01:41PM 27.9333 -81.1167 336° Northwest 348 400 11,100 -420 Descending Orlando TRACON
01:43PM 28.0333 -81.1500 344° North 353 406 11,000 -420 Descending Orlando TRACON
01:44PM 28.1167 -81.2000 332° Northwest 324 373 10,300 -540 Descending Orlando TRACON
01:45PM 28.2000 -81.2500 332° Northwest 304 350 10,000 -120 Descending Orlando TRACON
01:46PM 28.2667 -81.3000 327° Northwest 304 350 10,100  Climbing Orlando TRACON
01:46PM 28.3333 -81.3500 327° Northwest 304 350 10,000 -300 Descending Orlando TRACON
01:48PM 28.4000 -81.4000 327° Northwest 282 325 9,600 -780 Descending Orlando TRACON
01:49PM 28.4667 -81.4167 348° North 249 287 8,500 -1,560 Descending Orlando TRACON
01:50PM 28.5333 -81.4333 348° North 246 283 6,500 -1,980 Descending Orlando TRACON
01:50PM 28.6000 -81.4167 12° North 234 269 4,600 -1,800 Descending Orlando TRACON
01:52PM 28.6333 -81.3500 60° Northeast 225 259 2,900 -1,020 Descending Orlando TRACON
01:53PM 28.5833 -81.3333 164° South 186 214 2,600 -300 Descending Orlando TRACON
01:54PM 28.5333 -81.3333 180° South 175 201 2,300 -900 Descending Orlando TRACON
01:55PM 28.4833 -81.3333 180° South 138 159 800 -1,380 Descending Orlando TRACON